Time;durP1;ratioP1;P1;durP2;ratioP2;P2;SDS_P1;SDS_P2;PMS_P1;PMS_P2;Temp;Humidity;BMP_temperature;BMP_pressure;BME280_temperature;BME280_humidity;BME280_pressure;Samples;Min_cycle;Max_cycle;Signal;HPM_P1;HPM_P2
2022/02/02 00:00:40;;;;;;;2.83;1.07;;;;;;;;;;5112952;28;20031;-69
2022/02/02 00:03:10;;;;;;;3.90;1.30;;;;;;;;;;5113828;28;20141;-68
2022/02/02 00:08:21;;;;;;;4.33;1.23;;;;;;;;;;5114592;28;20035;-69
2022/02/02 00:13:33;;;;;;;3.33;1.60;;;;;;;;;;5109366;28;20036;-68
2022/02/02 00:21:13;;;;;;;6.33;1.30;;;;;;;;;;5112531;28;20474;-68
2022/02/02 00:23:45;;;;;;;3.77;1.53;;;;;;;;;;5113595;28;20080;-70
2022/02/02 00:26:18;;;;;;;5.50;1.80;;;;;;;;;;5113878;28;20039;-69
2022/02/02 00:28:50;;;;;;;5.40;1.80;;;;;;;;;;5114435;28;20036;-68
2022/02/02 00:31:23;;;;;;;6.40;2.00;;;;;;;;;;5114054;28;20032;-70
2022/02/02 00:33:59;;;;;;;5.18;1.92;;;;;;;;;;5109471;28;20027;-69
2022/02/02 00:36:33;;;;;;;5.70;1.67;;;;;;;;;;5109041;28;20034;-68
2022/02/02 00:39:00;;;;;;;;;;;;;;;;;;5109248;28;20424;-68
2022/02/02 00:41:26;;;;;;;3.83;1.77;;;;;;;;;;5108931;28;19908;-68
2022/02/02 00:43:59;;;;;;;7.67;1.73;;;;;;;;;;5112820;28;20015;-68
2022/02/02 00:46:27;;;;;;;5.13;1.67;;;;;;;;;;5113997;28;20466;-68
2022/02/02 00:49:00;;;;;;;6.63;1.47;;;;;;;;;;5113841;28;20024;-69
2022/02/02 00:51:34;;;;;;;3.93;1.43;;;;;;;;;;5113232;28;20117;-70
2022/02/02 00:54:01;;;;;;;7.37;1.80;;;;;;;;;;5113367;28;20031;-70
2022/02/02 00:56:28;;;;;;;5.60;2.33;;;;;;;;;;5108709;28;20797;-69
2022/02/02 00:58:55;;;;;;;3.57;1.80;;;;;;;;;;5108772;28;20034;-70
2022/02/02 01:01:21;;;;;;;3.33;1.60;;;;;;;;;;5108161;28;20019;-71
2022/02/02 01:03:48;;;;;;;6.77;1.90;;;;;;;;;;5108269;28;20024;-71
2022/02/02 01:06:18;;;;;;;6.00;1.77;;;;;;;;;;5112675;28;20513;-70
2022/02/02 01:11:32;;;;;;;11.03;2.00;;;;;;;;;;5113293;28;20035;-69
2022/02/02 01:15:02;;;;;;;4.83;2.03;;;;;;;;;;5112847;28;20051;-69
2022/02/02 01:19:43;;;;;;;3.23;1.40;;;;;;;;;;5108075;28;20081;-70
2022/02/02 01:30:09;;;;;;;4.30;1.60;;;;;;;;;;5113268;28;20827;-69
2022/02/02 01:32:36;;;;;;;8.37;1.70;;;;;;;;;;5112786;28;20419;-70
2022/02/02 01:35:04;;;;;;;7.47;1.90;;;;;;;;;;5113177;28;20077;-69
2022/02/02 01:37:31;;;;;;;3.83;1.67;;;;;;;;;;5113179;28;20102;-69
2022/02/02 01:40:04;;;;;;;8.27;1.70;;;;;;;;;;5109593;28;20016;-67
2022/02/02 01:42:39;;;;;;;5.40;1.30;;;;;;;;;;5107520;28;20086;-68
2022/02/02 01:45:20;;;;;;;5.17;1.30;;;;;;;;;;5107689;28;20497;-67
2022/02/02 01:50:57;;;;;;;4.65;1.73;;;;;;;;;;5111980;28;20116;-67
2022/02/02 01:55:52;;;;;;;2.63;1.10;;;;;;;;;;5111734;28;20103;-67
2022/02/02 02:00:54;;;;;;;5.70;1.47;;;;;;;;;;5112133;28;20039;-67
2022/02/02 02:03:21;;;;;;;10.53;1.40;;;;;;;;;;5107542;28;20163;-68
2022/02/02 02:05:47;;;;;;;3.17;1.50;;;;;;;;;;5107722;28;20482;-67
2022/02/02 02:08:15;;;;;;;2.93;1.37;;;;;;;;;;5107787;28;20390;-67
2022/02/02 02:10:42;;;;;;;7.00;1.20;;;;;;;;;;5107304;28;20063;-67
2022/02/02 02:13:18;;;;;;;5.63;1.30;;;;;;;;;;5112297;28;20104;-67
2022/02/02 02:15:45;;;;;;;9.00;2.03;;;;;;;;;;5112577;28;20030;-67
2022/02/02 02:18:12;;;;;;;4.10;1.80;;;;;;;;;;5112593;28;20039;-67
2022/02/02 02:20:41;;;;;;;5.77;1.80;;;;;;;;;;5112467;28;20020;-67
2022/02/02 02:23:07;;;;;;;6.10;1.70;;;;;;;;;;5111219;28;20070;-67
2022/02/02 02:25:38;;;;;;;4.43;1.50;;;;;;;;;;5107476;28;20032;-67
2022/02/02 02:28:15;;;;;;;4.30;1.50;;;;;;;;;;5089435;28;20370;-67
2022/02/02 02:38:56;;;;;;;8.90;2.47;;;;;;;;;;5112147;28;19992;-66
2022/02/02 03:01:06;;;;;;;3.80;1.60;;;;;;;;;;5102516;28;20031;-66
2022/02/02 03:30:45;;;;;;;6.83;2.63;;;;;;;;;;5113407;28;20050;-67
2022/02/02 03:53:03;;;;;;;6.60;2.58;;;;;;;;;;5093589;28;20236;-66
2022/02/02 03:55:25;;;;;;;7.60;2.57;;;;;;;;;;5089531;28;20047;-66
2022/02/02 04:00:31;;;;;;;5.53;1.87;;;;;;;;;;5100334;28;20036;-66
2022/02/02 04:05:42;;;;;;;5.40;1.90;;;;;;;;;;5114755;28;20360;-66
2022/02/02 04:08:24;;;;;;;4.67;2.27;;;;;;;;;;5113967;28;20554;-66
2022/02/02 04:10:51;;;;;;;10.93;3.23;;;;;;;;;;5114724;28;20536;-66
2022/02/02 04:14:14;;;;;;;8.20;2.10;;;;;;;;;;5114715;28;20020;-66
2022/02/02 04:52:08;;;;;;;4.00;1.60;;;;;;;;;;5113847;28;20485;-66
2022/02/02 05:08:34;;;;;;;7.80;2.45;;;;;;;;;;5005906;28;20124;-66
2022/02/02 05:19:56;;;;;;;4.70;1.30;;;;;;;;;;5070362;28;20071;-64
2022/02/02 05:52:07;;;;;;;;;;;;;;;;;;5098452;28;20031;-64
2022/02/02 05:54:34;;;;;;;3.77;1.73;;;;;;;;;;5110640;28;19965;-63
2022/02/02 05:57:01;;;;;;;3.50;1.77;;;;;;;;;;5113020;28;20040;-63
2022/02/02 05:59:29;;;;;;;3.77;1.80;;;;;;;;;;5112963;28;20382;-63
2022/02/02 06:02:00;;;;;;;3.57;1.53;;;;;;;;;;5112401;28;20482;-63
2022/02/02 06:04:28;;;;;;;5.77;1.17;;;;;;;;;;5112420;28;20032;-63
2022/02/02 06:06:56;;;;;;;6.73;2.40;;;;;;;;;;5109182;28;20051;-63
2022/02/02 06:09:28;;;;;;;5.73;2.53;;;;;;;;;;5107458;28;20098;-63
2022/02/02 06:11:55;;;;;;;4.07;1.90;;;;;;;;;;5107378;28;20024;-64
2022/02/02 06:14:30;;;;;;;4.77;2.00;;;;;;;;;;5106965;28;20077;-63
2022/02/02 06:17:01;;;;;;;;;;;;;;;;;;5110831;28;20050;-63
2022/02/02 06:19:27;;;;;;;5.43;1.30;;;;;;;;;;5112411;28;19904;-63
2022/02/02 06:22:01;;;;;;;5.73;1.70;;;;;;;;;;5112692;28;20027;-63
2022/02/02 06:24:32;;;;;;;2.30;1.27;;;;;;;;;;5112680;28;20040;-63
2022/02/02 06:27:02;;;;;;;4.97;1.30;;;;;;;;;;5112159;28;20024;-63
2022/02/02 06:29:31;;;;;;;4.57;1.50;;;;;;;;;;5107681;28;20028;-63
2022/02/02 06:32:26;;;;;;;4.73;1.43;;;;;;;;;;5107499;28;20028;-63
2022/02/02 06:34:56;;;;;;;3.58;1.30;;;;;;;;;;5107349;28;20047;-63
2022/02/02 06:37:24;;;;;;;3.30;1.40;;;;;;;;;;5107018;28;20502;-63
2022/02/02 06:39:51;;;;;;;2.63;1.30;;;;;;;;;;5111767;28;20375;-63
2022/02/02 06:42:17;;;;;;;4.80;1.63;;;;;;;;;;5115389;28;20024;-63
2022/02/02 06:44:45;;;;;;;6.03;1.40;;;;;;;;;;5116333;28;20027;-63
2022/02/02 06:47:12;;;;;;;2.77;1.33;;;;;;;;;;5116394;28;20024;-63
2022/02/02 06:49:43;;;;;;;7.17;1.60;;;;;;;;;;5116147;28;20027;-63
2022/02/02 06:52:21;;;;;;;4.27;1.47;;;;;;;;;;5111007;28;20024;-63
2022/02/02 06:55:06;;;;;;;2.53;1.30;;;;;;;;;;5111077;28;20020;-63
2022/02/02 06:57:54;;;;;;;4.07;1.35;;;;;;;;;;5111033;28;20024;-63
2022/02/02 07:00:36;;;;;;;2.63;1.30;;;;;;;;;;5111891;28;20517;-63
2022/02/02 07:03:24;;;;;;;2.70;1.40;;;;;;;;;;5116005;28;20565;-63
2022/02/02 07:06:25;;;;;;;3.07;1.70;;;;;;;;;;5115465;28;20122;-63
2022/02/02 07:09:14;;;;;;;2.83;1.80;;;;;;;;;;5115342;28;20424;-63
2022/02/02 07:12:00;;;;;;;2.80;1.50;;;;;;;;;;5115655;28;20039;-63
2022/02/02 07:20:47;;;;;;;4.77;1.27;;;;;;;;;;5081150;28;20437;-63
2022/02/02 07:26:07;;;;;;;2.72;1.30;;;;;;;;;;5095285;28;20671;-63
2022/02/02 07:31:38;;;;;;;4.30;1.10;;;;;;;;;;5115451;28;20043;-63
2022/02/02 07:34:20;;;;;;;3.67;1.93;;;;;;;;;;5115581;28;20043;-63
2022/02/02 07:36:50;;;;;;;3.27;1.67;;;;;;;;;;5110340;28;20024;-64
2022/02/02 07:39:17;;;;;;;2.73;1.30;;;;;;;;;;5109628;28;20123;-63
2022/02/02 07:41:47;;;;;;;2.47;1.33;;;;;;;;;;5110043;28;20019;-63
2022/02/02 07:44:18;;;;;;;2.93;1.47;;;;;;;;;;5109775;28;20035;-63
2022/02/02 07:46:46;;;;;;;5.40;1.67;;;;;;;;;;5115295;28;20482;-63
2022/02/02 07:49:15;;;;;;;3.20;1.30;;;;;;;;;;5115040;28;20011;-63
2022/02/02 07:51:42;;;;;;;4.73;1.67;;;;;;;;;;5114899;28;20031;-63
2022/02/02 07:54:20;;;;;;;2.87;1.27;;;;;;;;;;5115080;28;20027;-63
2022/02/02 07:56:47;;;;;;;2.83;1.50;;;;;;;;;;5114320;28;20022;-62
2022/02/02 08:01:52;;;;;;;2.63;1.30;;;;;;;;;;5109713;28;20063;-64
2022/02/02 08:04:21;;;;;;;2.40;1.30;;;;;;;;;;5109360;28;20405;-63
2022/02/02 08:06:52;;;;;;;1.87;1.10;;;;;;;;;;5110345;28;20034;-63
2022/02/02 08:11:54;;;;;;;5.37;1.20;;;;;;;;;;5114228;28;20112;-63
2022/02/02 08:14:21;;;;;;;2.50;1.30;;;;;;;;;;5114877;28;20015;-62
2022/02/02 08:16:48;;;;;;;3.90;1.30;;;;;;;;;;5114300;28;20037;-62
2022/02/02 08:19:21;;;;;;;2.70;1.40;;;;;;;;;;5113119;28;20114;-63
2022/02/02 08:21:47;;;;;;;2.87;1.87;;;;;;;;;;5109240;28;20556;-63
2022/02/02 08:24:15;;;;;;;3.27;1.40;;;;;;;;;;5109265;28;20023;-63
2022/02/02 08:26:42;;;;;;;3.13;1.60;;;;;;;;;;5108694;28;20073;-63
2022/02/02 08:29:09;;;;;;;3.70;1.83;;;;;;;;;;5110033;28;20085;-63
2022/02/02 08:31:39;;;;;;;2.77;1.50;;;;;;;;;;5114161;28;20427;-63
2022/02/02 08:34:11;;;;;;;4.93;1.90;;;;;;;;;;5114473;28;20094;-63
2022/02/02 08:36:40;;;;;;;2.90;1.60;;;;;;;;;;5113740;28;20116;-62
2022/02/02 08:39:29;;;;;;;2.27;1.40;;;;;;;;;;5114252;28;20383;-63
2022/02/02 08:42:02;;;;;;;2.70;1.30;;;;;;;;;;5111769;28;20666;-63
2022/02/02 08:44:40;;;;;;;2.40;1.40;;;;;;;;;;5108734;28;20535;-63
2022/02/02 08:47:10;;;;;;;2.80;1.20;;;;;;;;;;5108018;28;20028;-63
2022/02/02 08:49:44;;;;;;;2.87;1.27;;;;;;;;;;5108873;28;20099;-62
2022/02/02 08:52:13;;;;;;;4.13;1.50;;;;;;;;;;5111421;28;20032;-63
2022/02/02 08:54:47;;;;;;;3.60;1.87;;;;;;;;;;5114065;28;20039;-63
2022/02/02 08:57:27;;;;;;;2.55;1.48;;;;;;;;;;5113609;28;20015;-63
2022/02/02 08:59:59;;;;;;;3.07;1.50;;;;;;;;;;5113777;28;20019;-64
2022/02/02 09:02:31;;;;;;;3.60;1.70;;;;;;;;;;5113957;28;20260;-62
2022/02/02 09:07:43;;;;;;;2.15;1.40;;;;;;;;;;5108342;28;20042;-63
2022/02/02 09:10:14;;;;;;;2.87;1.47;;;;;;;;;;5107837;28;20080;-62
2022/02/02 09:24:19;;;;;;;4.32;2.00;;;;;;;;;;5093135;28;20494;-62
2022/02/02 09:34:43;;;;;;;3.60;1.47;;;;;;;;;;5096700;28;20325;-62
2022/02/02 09:37:10;;;;;;;2.40;1.20;;;;;;;;;;5111587;28;20631;-62
2022/02/02 09:39:44;;;;;;;3.83;1.57;;;;;;;;;;5113008;28;20256;-62
2022/02/02 09:42:18;;;;;;;6.97;1.67;;;;;;;;;;5112969;28;20260;-62
2022/02/02 09:44:45;;;;;;;4.70;1.63;;;;;;;;;;5112900;28;20359;-62
2022/02/02 09:49:53;;;;;;;2.10;1.40;;;;;;;;;;5107582;28;20264;-62
2022/02/02 09:52:21;;;;;;;4.03;1.40;;;;;;;;;;5107482;28;20256;-62
2022/02/02 10:00:16;;;;;;;3.80;1.60;;;;;;;;;;5112716;28;20253;-62
2022/02/02 10:08:08;;;;;;;2.33;1.33;;;;;;;;;;5112710;28;20272;-62
2022/02/02 10:10:52;;;;;;;4.23;1.47;;;;;;;;;;5110855;28;20286;-62
2022/02/02 10:15:46;;;;;;;2.10;1.30;;;;;;;;;;5107476;28;20256;-62
2022/02/02 10:18:24;;;;;;;3.27;1.83;;;;;;;;;;5111399;28;20260;-63
2022/02/02 10:20:54;;;;;;;3.77;1.80;;;;;;;;;;5114229;28;20264;-62
2022/02/02 10:23:25;;;;;;;3.13;1.33;;;;;;;;;;5116876;28;20256;-62
2022/02/02 10:25:57;;;;;;;5.23;1.50;;;;;;;;;;5116400;28;20288;-63
2022/02/02 10:28:25;;;;;;;1.43;1.00;;;;;;;;;;5116354;28;20342;-62
2022/02/02 10:30:53;;;;;;;3.87;1.60;;;;;;;;;;5116865;28;20264;-62
2022/02/02 10:33:21;;;;;;;2.60;1.50;;;;;;;;;;5113351;28;20364;-62
2022/02/02 10:35:49;;;;;;;2.13;1.10;;;;;;;;;;5111217;28;20328;-63
2022/02/02 10:38:19;;;;;;;2.27;1.30;;;;;;;;;;5111184;28;20598;-62
2022/02/02 10:40:51;;;;;;;3.63;1.53;;;;;;;;;;5111262;28;20248;-62
2022/02/02 10:43:22;;;;;;;2.27;1.17;;;;;;;;;;5114027;28;20607;-62
2022/02/02 10:45:50;;;;;;;2.70;1.20;;;;;;;;;;5116476;28;20283;-62
2022/02/02 10:48:33;;;;;;;3.47;1.30;;;;;;;;;;5116089;28;20259;-62
2022/02/02 10:51:07;;;;;;;2.40;1.30;;;;;;;;;;5116456;28;20263;-62
2022/02/02 11:01:37;;;;;;;4.80;1.60;;;;;;;;;;5110603;28;20275;-62
2022/02/02 11:06:50;;;;;;;2.17;1.40;;;;;;;;;;5116121;28;20286;-62
2022/02/02 11:09:18;;;;;;;2.60;1.17;;;;;;;;;;5115588;28;20081;-62
2022/02/02 11:11:45;;;;;;;2.17;1.10;;;;;;;;;;5116068;28;20244;-62
2022/02/02 11:14:25;;;;;;;3.77;2.13;;;;;;;;;;5115363;28;20402;-62
2022/02/02 11:16:56;;;;;;;4.60;1.50;;;;;;;;;;5114471;28;20259;-62
2022/02/02 11:19:24;;;;;;;3.77;1.40;;;;;;;;;;5110907;28;20708;-62
2022/02/02 11:21:50;;;;;;;4.57;1.87;;;;;;;;;;5110174;28;20866;-62
2022/02/02 11:24:19;;;;;;;4.03;1.63;;;;;;;;;;5110137;28;20272;-62
2022/02/02 11:26:47;;;;;;;2.13;1.30;;;;;;;;;;5110822;28;20343;-62
2022/02/02 11:29:49;;;;;;;3.40;1.37;;;;;;;;;;5115610;28;20750;-62
2022/02/02 11:32:16;;;;;;;2.37;1.17;;;;;;;;;;5032732;28;20365;-62
2022/02/02 11:34:43;;;;;;;4.13;1.57;;;;;;;;;;5099649;28;20280;-62
2022/02/02 11:37:11;;;;;;;3.67;1.30;;;;;;;;;;5115131;28;20271;-63
2022/02/02 11:39:50;;;;;;;2.70;1.30;;;;;;;;;;5112775;28;20260;-63
2022/02/02 11:42:41;;;;;;;5.80;1.50;;;;;;;;;;5109583;28;20268;-62
2022/02/02 11:45:28;;;;;;;2.47;1.47;;;;;;;;;;5109940;28;20378;-62
2022/02/02 11:47:57;;;;;;;4.20;1.30;;;;;;;;;;5058910;28;20673;-62
2022/02/02 11:50:44;;;;;;;3.00;1.70;;;;;;;;;;5113692;28;20388;-62
2022/02/02 11:53:11;;;;;;;3.60;1.60;;;;;;;;;;5115069;28;20268;-62
2022/02/02 11:55:42;;;;;;;2.90;1.30;;;;;;;;;;5115074;28;20286;-62
2022/02/02 11:58:15;;;;;;;8.57;1.77;;;;;;;;;;5115113;28;20245;-62
2022/02/02 12:00:58;;;;;;;1.60;1.10;;;;;;;;;;5114569;28;20649;-61
2022/02/02 12:06:33;;;;;;;2.33;1.35;;;;;;;;;;5109457;28;20296;-62
2022/02/02 12:09:10;;;;;;;2.17;1.10;;;;;;;;;;5109531;28;20047;-62
2022/02/02 12:44:53;;;;;;;4.97;1.40;;;;;;;;;;5114350;28;20110;-62
2022/02/02 12:58:06;;;;;;;2.50;1.30;;;;;;;;;;5113871;28;20264;-62
2022/02/02 13:03:09;;;;;;;3.17;1.30;;;;;;;;;;5113712;28;20252;-63
2022/02/02 13:05:36;;;;;;;3.90;1.60;;;;;;;;;;5113453;28;20294;-63
2022/02/02 13:08:04;;;;;;;2.33;1.43;;;;;;;;;;5111057;28;20615;-63
2022/02/02 13:10:32;;;;;;;6.53;1.50;;;;;;;;;;5108348;28;20256;-63
2022/02/02 13:13:12;;;;;;;4.17;1.30;;;;;;;;;;5108262;28;20260;-63
2022/02/02 13:15:53;;;;;;;2.60;1.13;;;;;;;;;;5108417;28;20714;-63
2022/02/02 13:18:31;;;;;;;3.53;1.40;;;;;;;;;;5110502;28;20256;-63
2022/02/02 13:26:15;;;;;;;3.20;1.67;;;;;;;;;;5113355;28;20299;-62
2022/02/02 13:32:02;;;;;;;6.93;1.67;;;;;;;;;;5107513;28;20284;-62
2022/02/02 13:37:35;;;;;;;3.57;2.77;;;;;;;;;;5107482;28;20265;-62
2022/02/02 13:48:04;;;;;;;6.77;2.20;;;;;;;;;;5112907;28;20424;-63
2022/02/02 13:56:10;;;;;;;11.50;3.10;;;;;;;;;;5107549;28;20373;-63
2022/02/02 14:31:34;;;;;;;4.80;2.10;;;;;;;;;;5112574;28;20051;-64
2022/02/02 14:33:52;;;;;;;5.27;1.90;;;;;;;;;;5107009;28;20434;-64
2022/02/02 14:36:22;;;;;;;4.07;2.00;;;;;;;;;;5111353;28;20128;-64
2022/02/02 14:39:56;;;;;;;6.00;2.80;;;;;;;;;;5107198;28;20110;-64
2022/02/02 14:41:51;;;;;;;7.87;3.30;;;;;;;;;;5097257;28;20472;-64
2022/02/02 14:49:47;;;;;;;5.93;2.65;;;;;;;;;;5112678;28;20059;-64
2022/02/02 15:28:05;;;;;;;9.13;3.27;;;;;;;;;;5110492;28;19904;-65
2022/02/02 15:30:50;;;;;;;6.93;3.33;;;;;;;;;;5110912;28;20518;-65
2022/02/02 15:33:25;;;;;;;7.47;3.20;;;;;;;;;;5115393;28;20114;-65
2022/02/02 15:36:05;;;;;;;9.85;3.50;;;;;;;;;;5115731;28;20024;-65
2022/02/02 15:38:33;;;;;;;11.97;3.73;;;;;;;;;;5115129;28;20028;-65
2022/02/02 15:41:05;;;;;;;7.40;2.83;;;;;;;;;;5115284;28;20114;-65
2022/02/02 15:43:49;;;;;;;10.60;3.40;;;;;;;;;;5112318;28;20024;-65
2022/02/02 15:54:55;;;;;;;;;;;;;;;;;;5115168;28;20030;-65
2022/02/02 16:00:33;;;;;;;11.70;3.10;;;;;;;;;;5114908;28;20492;-65
2022/02/02 16:05:31;;;;;;;6.10;3.47;;;;;;;;;;5112331;28;21364;-66
2022/02/02 16:08:04;;;;;;;9.53;4.03;;;;;;;;;;5109307;28;20026;-66
2022/02/02 16:10:43;;;;;;;7.23;3.70;;;;;;;;;;5109351;28;20031;-66
2022/02/02 16:13:26;;;;;;;10.93;3.83;;;;;;;;;;5108995;28;20023;-66
2022/02/02 16:15:56;;;;;;;8.03;3.83;;;;;;;;;;5112144;28;20057;-66
2022/02/02 16:35:19;;;;;;;7.23;4.03;;;;;;;;;;5108767;28;20118;-66
2022/02/02 16:37:46;;;;;;;9.30;3.50;;;;;;;;;;5111363;28;20041;-66
2022/02/02 16:40:18;;;;;;;11.27;3.83;;;;;;;;;;5113970;28;20036;-66
2022/02/02 16:45:30;;;;;;;9.25;3.42;;;;;;;;;;5113724;28;20046;-66
2022/02/02 16:47:57;;;;;;;11.20;3.90;;;;;;;;;;5114104;28;20031;-66
2022/02/02 16:50:29;;;;;;;12.13;3.37;;;;;;;;;;5110056;28;20027;-65
2022/02/02 16:53:00;;;;;;;11.20;3.80;;;;;;;;;;5108770;28;20385;-66
2022/02/02 16:56:21;;;;;;;5.77;3.43;;;;;;;;;;5108606;28;20024;-66
2022/02/02 17:31:11;;;;;;;8.03;2.80;;;;;;;;;;5111757;28;20047;-66
2022/02/02 17:33:46;;;;;;;9.10;3.03;;;;;;;;;;5111995;28;20039;-66
2022/02/02 17:36:29;;;;;;;5.60;2.50;;;;;;;;;;5107599;28;20051;-67
2022/02/02 17:39:06;;;;;;;6.50;2.90;;;;;;;;;;5107261;28;20466;-66
2022/02/02 17:41:53;;;;;;;7.37;2.60;;;;;;;;;;5107407;28;20102;-66
2022/02/02 18:14:26;;;;;;;4.57;2.40;;;;;;;;;;5112653;28;20101;-66
2022/02/02 18:18:56;;;;;;;5.73;2.40;;;;;;;;;;5109730;28;20030;-66
2022/02/02 18:21:25;;;;;;;5.30;2.20;;;;;;;;;;5107482;28;20385;-66
2022/02/02 18:24:06;;;;;;;4.97;2.40;;;;;;;;;;5106575;28;20402;-66
2022/02/02 18:26:46;;;;;;;4.73;2.50;;;;;;;;;;5107465;28;20038;-66
2022/02/02 18:29:21;;;;;;;5.70;1.93;;;;;;;;;;5110876;28;20028;-66
2022/02/02 18:32:03;;;;;;;3.83;2.22;;;;;;;;;;5112371;28;20023;-67
2022/02/02 18:58:18;;;;;;;4.30;2.30;;;;;;;;;;5116272;28;20081;-66
2022/02/02 19:01:17;;;;;;;9.20;2.70;;;;;;;;;;5115769;28;20019;-67
2022/02/02 19:31:19;;;;;;;2.63;1.17;;;;;;;;;;5110318;28;20053;-67
2022/02/02 19:55:45;;;;;;;2.80;1.30;;;;;;;;;;5110046;28;20481;-66
2022/02/02 20:11:35;;;;;;;7.07;1.20;;;;;;;;;;5109485;28;20023;-66
2022/02/02 20:14:02;;;;;;;4.20;1.17;;;;;;;;;;5109431;28;20034;-66
2022/02/02 20:16:29;;;;;;;5.13;1.27;;;;;;;;;;5109569;28;20031;-66
2022/02/02 20:18:58;;;;;;;6.10;1.83;;;;;;;;;;5109420;28;20051;-66
2022/02/02 20:24:37;;;;;;;3.07;1.07;;;;;;;;;;5086178;28;20051;-73
2022/02/02 20:27:04;;;;;;;4.93;1.30;;;;;;;;;;5094285;28;20097;-73
2022/02/02 20:29:32;;;;;;;4.57;1.27;;;;;;;;;;5094236;28;20024;-73
2022/02/02 20:31:58;;;;;;;2.17;0.90;;;;;;;;;;5094219;28;20024;-73
2022/02/02 20:34:25;;;;;;;14.10;1.40;;;;;;;;;;5077946;28;20032;-72
2022/02/02 20:36:52;;;;;;;4.07;1.00;;;;;;;;;;5068423;28;20116;-73
2022/02/02 20:39:36;;;;;;;2.13;0.97;;;;;;;;;;5067816;28;20024;-73
2022/02/02 20:42:05;;;;;;;2.33;1.00;;;;;;;;;;5069355;28;20029;-72
2022/02/02 21:14:15;;;;;;;3.63;0.87;;;;;;;;;;5090508;28;20036;-73
2022/02/02 21:16:45;;;;;;;4.80;1.10;;;;;;;;;;5073031;28;20543;-73
2022/02/02 21:19:22;;;;;;;4.23;1.10;;;;;;;;;;5068588;28;20035;-73
2022/02/02 21:21:53;;;;;;;2.95;1.00;;;;;;;;;;5078896;28;20047;-73
2022/02/02 21:29:23;;;;;;;1.43;0.67;;;;;;;;;;5091859;28;20111;-73
2022/02/02 21:31:50;;;;;;;1.83;0.77;;;;;;;;;;5081590;28;20028;-73
2022/02/02 21:34:19;;;;;;;5.97;0.87;;;;;;;;;;5072632;28;20027;-73
2022/02/02 21:36:46;;;;;;;3.07;0.80;;;;;;;;;;5072874;28;20099;-73
2022/02/02 21:39:24;;;;;;;4.30;0.90;;;;;;;;;;5072710;28;20025;-73
2022/02/02 21:41:52;;;;;;;3.53;0.68;;;;;;;;;;5080996;28;20115;-73
2022/02/02 21:44:20;;;;;;;1.97;0.73;;;;;;;;;;5087140;28;20118;-73
2022/02/02 21:46:47;;;;;;;7.40;1.20;;;;;;;;;;5086833;28;20047;-73
2022/02/02 21:49:23;;;;;;;1.23;0.50;;;;;;;;;;5087466;28;20360;-73
2022/02/02 21:54:20;;;;;;;6.37;1.17;;;;;;;;;;5073001;28;20021;-73
2022/02/02 21:56:47;;;;;;;7.37;0.57;;;;;;;;;;5092678;28;20027;-73
2022/02/02 21:59:13;;;;;;;1.57;0.70;;;;;;;;;;5092555;28;20030;-74
2022/02/02 22:01:40;;;;;;;2.53;0.80;;;;;;;;;;5092413;28;20024;-73
2022/02/02 22:04:07;;;;;;;2.43;0.70;;;;;;;;;;5087342;28;20102;-73
2022/02/02 22:06:33;;;;;;;5.50;0.90;;;;;;;;;;5068199;28;20486;-72
2022/02/02 22:09:02;;;;;;;7.90;1.00;;;;;;;;;;5067014;28;20028;-73
2022/02/02 22:11:28;;;;;;;6.97;0.73;;;;;;;;;;5066729;28;20111;-73
2022/02/02 22:14:01;;;;;;;2.37;0.70;;;;;;;;;;5070930;28;20021;-73
2022/02/02 22:16:28;;;;;;;2.03;0.80;;;;;;;;;;5089674;28;20039;-73
2022/02/02 22:18:56;;;;;;;3.70;1.00;;;;;;;;;;5092370;28;20035;-73
2022/02/02 22:21:25;;;;;;;3.07;0.53;;;;;;;;;;5092334;28;20028;-73
2022/02/02 22:23:52;;;;;;;3.40;1.03;;;;;;;;;;5092201;28;20036;-72
2022/02/02 22:26:20;;;;;;;1.47;0.60;;;;;;;;;;5085435;28;20504;-73
2022/02/02 22:28:47;;;;;;;1.10;0.50;;;;;;;;;;5087040;28;20023;-73
2022/02/02 22:31:14;;;;;;;2.93;1.00;;;;;;;;;;5086890;28;20031;-73
2022/02/02 22:33:41;;;;;;;2.03;0.90;;;;;;;;;;5086394;28;20016;-73
2022/02/02 22:36:08;;;;;;;4.00;1.27;;;;;;;;;;5075826;28;20059;-73
2022/02/02 22:38:34;;;;;;;1.83;0.70;;;;;;;;;;5071891;28;20021;-73
2022/02/02 22:41:01;;;;;;;2.40;1.00;;;;;;;;;;5071959;28;20024;-73
2022/02/02 22:43:30;;;;;;;5.00;0.90;;;;;;;;;;5072098;28;20031;-73
2022/02/02 22:45:57;;;;;;;6.03;1.20;;;;;;;;;;5083949;28;20032;-73
2022/02/02 22:48:25;;;;;;;3.40;1.00;;;;;;;;;;5087971;28;20028;-73
2022/02/02 22:50:52;;;;;;;3.03;0.90;;;;;;;;;;5086772;28;20020;-73
2022/02/02 22:53:23;;;;;;;6.53;0.73;;;;;;;;;;5086898;28;20795;-73
2022/02/02 22:55:50;;;;;;;4.03;0.80;;;;;;;;;;5081303;28;20502;-73
2022/02/02 22:58:16;;;;;;;2.67;1.00;;;;;;;;;;5090301;28;20618;-73
2022/02/02 23:00:45;;;;;;;8.60;1.47;;;;;;;;;;5090282;28;20023;-73
2022/02/02 23:03:16;;;;;;;5.00;0.90;;;;;;;;;;5091972;28;20024;-73
2022/02/02 23:05:46;;;;;;;7.03;1.20;;;;;;;;;;5091538;28;20028;-73
2022/02/02 23:08:14;;;;;;;11.83;1.07;;;;;;;;;;5071980;28;20030;-73
2022/02/02 23:10:42;;;;;;;3.03;0.57;;;;;;;;;;5067662;28;20425;-73
2022/02/02 23:13:10;;;;;;;1.27;0.70;;;;;;;;;;5066470;28;20020;-73
2022/02/02 23:15:43;;;;;;;4.23;0.83;;;;;;;;;;5066598;28;20452;-73
2022/02/02 23:18:16;;;;;;;1.63;0.70;;;;;;;;;;5066163;28;20024;-73
2022/02/02 23:20:46;;;;;;;6.70;0.77;;;;;;;;;;5072609;28;20028;-73
2022/02/02 23:23:16;;;;;;;3.80;0.60;;;;;;;;;;5092962;28;20039;-73
2022/02/02 23:25:43;;;;;;;3.70;0.70;;;;;;;;;;5095141;28;20047;-73
2022/02/02 23:28:12;;;;;;;1.87;0.80;;;;;;;;;;5095450;28;20099;-73
2022/02/02 23:30:42;;;;;;;5.63;0.90;;;;;;;;;;5093118;28;20028;-73
2022/02/02 23:33:10;;;;;;;3.53;0.70;;;;;;;;;;5070218;28;20028;-73
2022/02/02 23:35:38;;;;;;;4.17;0.73;;;;;;;;;;5071948;28;20771;-73
2022/02/02 23:38:06;;;;;;;3.40;1.33;;;;;;;;;;5079498;28;20052;-73
2022/02/02 23:40:49;;;;;;;3.33;0.87;;;;;;;;;;5069642;28;20028;-73
2022/02/02 23:43:17;;;;;;;6.17;1.07;;;;;;;;;;5093449;28;20056;-74
2022/02/02 23:45:53;;;;;;;6.37;0.87;;;;;;;;;;5095037;28;20032;-73
2022/02/02 23:48:22;;;;;;;5.73;0.70;;;;;;;;;;5094935;28;20024;-73
2022/02/02 23:50:52;;;;;;;5.20;0.60;;;;;;;;;;5094916;28;20099;-72
2022/02/02 23:53:19;;;;;;;2.67;0.63;;;;;;;;;;5092979;28;20501;-72
2022/02/02 23:55:50;;;;;;;1.53;0.70;;;;;;;;;;5069466;28;20024;-73
2022/02/02 23:58:28;;;;;;;11.17;1.17;;;;;;;;;;5069196;28;20509;-72
